Time;durP1;ratioP1;P1;durP2;ratioP2;P2;SDS_P1;SDS_P2;PMS_P1;PMS_P2;Temp;Humidity;BMP_temperature;BMP_pressure;BME280_temperature;BME280_humidity;BME280_pressure;Samples;Min_cycle;Max_cycle;Signal;HPM_P1;HPM_P2
2021/10/21 00:00:24;;;;;;;141.18;44.42;;;;;;;;;;5051800;28;20595;-64
2021/10/21 00:02:50;;;;;;;122.00;28.05;;;;;;;;;;5053932;28;20068;-63
2021/10/21 00:05:16;;;;;;;136.75;46.75;;;;;;;;;;5053800;28;20113;-64
2021/10/21 00:07:42;;;;;;;127.30;24.73;;;;;;;;;;5050219;28;20555;-64
2021/10/21 00:10:08;;;;;;;99.00;14.10;;;;;;;;;;5054995;28;20033;-64
2021/10/21 00:12:34;;;;;;;145.13;49.78;;;;;;;;;;5056745;28;20404;-64
2021/10/21 00:15:00;;;;;;;163.60;62.67;;;;;;;;;;5054730;28;20562;-64
2021/10/21 00:17:26;;;;;;;117.85;33.47;;;;;;;;;;5053262;28;20085;-64
2021/10/21 00:19:52;;;;;;;116.80;37.22;;;;;;;;;;5054998;28;20028;-64
2021/10/21 00:22:18;;;;;;;144.77;21.58;;;;;;;;;;5053758;28;20579;-64
2021/10/21 00:24:44;;;;;;;82.55;12.15;;;;;;;;;;5052810;28;20037;-64
2021/10/21 00:27:10;;;;;;;101.43;13.77;;;;;;;;;;5054312;28;20039;-64
2021/10/21 00:29:36;;;;;;;118.15;15.88;;;;;;;;;;5051367;28;20032;-63
2021/10/21 00:32:02;;;;;;;122.55;15.70;;;;;;;;;;5053530;28;20090;-64
2021/10/21 00:34:28;;;;;;;106.47;13.60;;;;;;;;;;5053772;28;20033;-65
2021/10/21 00:36:54;;;;;;;54.75;10.23;;;;;;;;;;5052725;28;20045;-63
2021/10/21 00:39:20;;;;;;;63.88;9.50;;;;;;;;;;5051217;28;20036;-64
2021/10/21 00:41:46;;;;;;;113.43;14.63;;;;;;;;;;5053894;28;20110;-63
2021/10/21 00:44:12;;;;;;;121.35;16.58;;;;;;;;;;5054674;28;20024;-64
2021/10/21 00:46:38;;;;;;;48.35;8.05;;;;;;;;;;5051231;28;20244;-64
2021/10/21 00:49:04;;;;;;;48.17;7.95;;;;;;;;;;5050720;28;20634;-64
2021/10/21 00:51:30;;;;;;;84.43;11.77;;;;;;;;;;5052628;28;20636;-64
2021/10/21 00:53:56;;;;;;;114.55;14.85;;;;;;;;;;5051900;28;20032;-65
2021/10/21 00:56:22;;;;;;;102.65;13.90;;;;;;;;;;5051726;28;20124;-64
2021/10/21 00:58:50;;;;;;;93.18;13.35;;;;;;;;;;5051500;28;20044;-64
2021/10/21 01:01:16;;;;;;;125.13;15.57;;;;;;;;;;5048952;28;20037;-64
2021/10/21 01:03:42;;;;;;;129.13;16.35;;;;;;;;;;5053124;28;20721;-64
2021/10/21 01:06:08;;;;;;;131.35;18.15;;;;;;;;;;5052079;28;20086;-64
2021/10/21 01:08:34;;;;;;;134.45;17.85;;;;;;;;;;5052139;28;20040;-64
2021/10/21 01:11:00;;;;;;;141.90;19.35;;;;;;;;;;5052908;28;20108;-64
2021/10/21 01:13:26;;;;;;;97.72;13.27;;;;;;;;;;5054006;28;20169;-64
2021/10/21 01:15:52;;;;;;;116.55;15.93;;;;;;;;;;5051332;28;20536;-64
2021/10/21 01:18:18;;;;;;;122.47;15.82;;;;;;;;;;5054274;28;20411;-64
2021/10/21 01:20:44;;;;;;;139.18;18.35;;;;;;;;;;5047407;28;20397;-63
2021/10/21 01:23:10;;;;;;;107.97;14.43;;;;;;;;;;5051445;28;20107;-64
2021/10/21 01:25:36;;;;;;;120.75;16.48;;;;;;;;;;5055732;28;20492;-64
2021/10/21 01:28:02;;;;;;;181.45;27.08;;;;;;;;;;5050845;28;20556;-63
2021/10/21 01:30:28;;;;;;;107.03;16.15;;;;;;;;;;5053905;28;20170;-63
2021/10/21 01:32:55;;;;;;;149.10;18.58;;;;;;;;;;5050263;28;20056;-64
2021/10/21 01:35:21;;;;;;;121.70;15.07;;;;;;;;;;5051576;28;20071;-64
2021/10/21 01:37:47;;;;;;;126.95;18.08;;;;;;;;;;5050871;28;20741;-64
2021/10/21 01:40:13;;;;;;;133.13;17.05;;;;;;;;;;5051112;28;20400;-64
2021/10/21 01:42:39;;;;;;;78.53;10.80;;;;;;;;;;5053223;28;20115;-65
2021/10/21 01:45:05;;;;;;;139.30;17.23;;;;;;;;;;5053058;28;20550;-64
2021/10/21 01:47:31;;;;;;;144.50;17.85;;;;;;;;;;5049006;28;20032;-64
2021/10/21 01:49:57;;;;;;;136.50;16.83;;;;;;;;;;5052892;28;20032;-64
2021/10/21 01:52:23;;;;;;;146.05;17.65;;;;;;;;;;5049189;28;20029;-64
2021/10/21 01:54:50;;;;;;;131.40;17.27;;;;;;;;;;5048393;28;20032;-64
2021/10/21 01:57:16;;;;;;;121.75;14.90;;;;;;;;;;5051336;28;20524;-64
2021/10/21 01:59:42;;;;;;;136.88;16.73;;;;;;;;;;5051409;28;20107;-64
2021/10/21 02:02:08;;;;;;;131.73;16.83;;;;;;;;;;5048592;28;20040;-64
2021/10/21 02:04:34;;;;;;;161.65;19.55;;;;;;;;;;5050908;28;20061;-64
2021/10/21 02:07:00;;;;;;;93.57;12.52;;;;;;;;;;5049973;28;20086;-64
2021/10/21 02:09:26;;;;;;;129.05;15.85;;;;;;;;;;5031805;28;20477;-64
2021/10/21 02:11:52;;;;;;;113.00;14.07;;;;;;;;;;5050495;28;20036;-64
2021/10/21 02:14:18;;;;;;;101.70;13.73;;;;;;;;;;5049123;28;20025;-64
2021/10/21 02:16:44;;;;;;;31.85;6.68;;;;;;;;;;5051068;28;20025;-64
2021/10/21 02:19:10;;;;;;;76.22;9.57;;;;;;;;;;5049805;28;20024;-64
2021/10/21 02:21:36;;;;;;;104.85;12.10;;;;;;;;;;5048990;28;20766;-64
2021/10/21 02:24:02;;;;;;;63.53;8.40;;;;;;;;;;5047256;28;20048;-64
2021/10/21 02:26:29;;;;;;;47.15;7.32;;;;;;;;;;5052363;28;20039;-64
2021/10/21 02:28:56;;;;;;;41.80;7.22;;;;;;;;;;5051462;28;20040;-64
2021/10/21 02:31:22;;;;;;;40.33;7.50;;;;;;;;;;5047809;28;20146;-64
2021/10/21 02:33:47;;;;;;;42.67;8.25;;;;;;;;;;5051123;28;20492;-64
2021/10/21 02:36:13;;;;;;;28.90;6.15;;;;;;;;;;5049434;28;20501;-64
2021/10/21 02:38:39;;;;;;;26.83;5.70;;;;;;;;;;5051512;28;20040;-65
2021/10/21 02:41:05;;;;;;;33.03;6.72;;;;;;;;;;5050044;28;20037;-64
2021/10/21 02:43:31;;;;;;;46.85;8.02;;;;;;;;;;5051611;28;20032;-64
2021/10/21 02:46:00;;;;;;;42.35;7.88;;;;;;;;;;5047450;28;20052;-64
2021/10/21 02:48:26;;;;;;;32.85;6.45;;;;;;;;;;5047511;28;20158;-64
2021/10/21 02:50:52;;;;;;;35.67;7.00;;;;;;;;;;5051678;28;20029;-64
2021/10/21 02:53:18;;;;;;;46.97;7.10;;;;;;;;;;5050332;28;20627;-64
2021/10/21 02:55:44;;;;;;;52.35;7.57;;;;;;;;;;5049304;28;20717;-64
2021/10/21 02:58:10;;;;;;;40.70;6.72;;;;;;;;;;5047483;28;20043;-65
2021/10/21 03:00:36;;;;;;;50.13;7.15;;;;;;;;;;5049794;28;20029;-64
2021/10/21 03:03:02;;;;;;;62.53;8.65;;;;;;;;;;5050491;28;20028;-64
2021/10/21 03:05:28;;;;;;;98.00;10.85;;;;;;;;;;5047258;28;20400;-64
2021/10/21 03:07:54;;;;;;;112.80;12.48;;;;;;;;;;5049627;28;20051;-64
2021/10/21 03:10:20;;;;;;;121.32;13.48;;;;;;;;;;5048023;28;20497;-64
2021/10/21 03:12:46;;;;;;;111.28;12.27;;;;;;;;;;5046004;28;20033;-64
2021/10/21 03:15:12;;;;;;;116.13;12.65;;;;;;;;;;5047382;28;20502;-64
2021/10/21 03:17:44;;;;;;;95.65;11.13;;;;;;;;;;5049271;28;20036;-63
2021/10/21 03:20:10;;;;;;;122.68;12.98;;;;;;;;;;5046478;28;20489;-63
2021/10/21 03:22:36;;;;;;;109.63;12.65;;;;;;;;;;5049490;28;20029;-64
2021/10/21 03:25:02;;;;;;;133.50;14.65;;;;;;;;;;5050234;28;20083;-64
2021/10/21 03:27:28;;;;;;;165.77;17.50;;;;;;;;;;5050421;28;20033;-65
2021/10/21 03:29:54;;;;;;;131.60;13.95;;;;;;;;;;5047022;28;20374;-64
2021/10/21 03:32:20;;;;;;;125.97;13.88;;;;;;;;;;5048116;28;20032;-64
2021/10/21 03:34:46;;;;;;;114.90;12.38;;;;;;;;;;5050063;28;20752;-63
2021/10/21 03:37:12;;;;;;;131.95;14.50;;;;;;;;;;5049170;28;20044;-64
2021/10/21 03:39:39;;;;;;;81.18;9.55;;;;;;;;;;5048944;28;20776;-63
2021/10/21 03:42:08;;;;;;;85.93;10.02;;;;;;;;;;5049437;28;20039;-64
2021/10/21 03:44:34;;;;;;;56.45;7.25;;;;;;;;;;5049542;28;20116;-65
2021/10/21 03:47:00;;;;;;;83.70;10.13;;;;;;;;;;5043725;28;20139;-64
2021/10/21 03:49:26;;;;;;;76.57;8.70;;;;;;;;;;5049705;28;20028;-63
2021/10/21 03:51:52;;;;;;;44.17;7.32;;;;;;;;;;5046178;28;20037;-64
2021/10/21 03:54:18;;;;;;;40.28;6.32;;;;;;;;;;5049408;28;20079;-63
2021/10/21 03:56:44;;;;;;;30.95;5.63;;;;;;;;;;5047435;28;20072;-64
2021/10/21 03:59:10;;;;;;;86.60;9.80;;;;;;;;;;5045942;28;20037;-64
2021/10/21 04:01:36;;;;;;;137.95;14.27;;;;;;;;;;5049832;28;20432;-64
2021/10/21 04:04:02;;;;;;;134.52;14.55;;;;;;;;;;5046297;28;20070;-64
2021/10/21 04:06:28;;;;;;;122.55;13.38;;;;;;;;;;5046622;28;20948;-64
2021/10/21 04:08:54;;;;;;;122.10;13.02;;;;;;;;;;5047630;28;20029;-64
2021/10/21 04:11:20;;;;;;;112.50;11.32;;;;;;;;;;5049030;28;20043;-64
2021/10/21 04:13:46;;;;;;;129.73;22.48;;;;;;;;;;5049150;28;20781;-63
2021/10/21 04:16:12;;;;;;;145.60;29.02;;;;;;;;;;5047709;28;20045;-63
2021/10/21 04:18:38;;;;;;;99.20;10.57;;;;;;;;;;5047880;28;20040;-64
2021/10/21 04:21:04;;;;;;;164.98;47.47;;;;;;;;;;5045811;28;20033;-64
2021/10/21 04:23:30;;;;;;;109.68;15.63;;;;;;;;;;5048281;28;20025;-64
2021/10/21 04:25:56;;;;;;;158.10;43.03;;;;;;;;;;5052991;28;20081;-65
2021/10/21 04:28:22;;;;;;;119.03;27.83;;;;;;;;;;5048002;28;20098;-65
2021/10/21 04:30:48;;;;;;;113.95;19.83;;;;;;;;;;5049955;28;20033;-64
2021/10/21 04:33:14;;;;;;;105.15;14.07;;;;;;;;;;5049394;28;20037;-63
2021/10/21 04:35:40;;;;;;;112.10;29.00;;;;;;;;;;5052508;28;20442;-64
2021/10/21 04:38:06;;;;;;;171.10;52.20;;;;;;;;;;5049614;28;20029;-64
2021/10/21 04:40:32;;;;;;;180.50;70.63;;;;;;;;;;5051050;28;20599;-64
2021/10/21 04:42:59;;;;;;;173.02;82.78;;;;;;;;;;5051078;28;20070;-64
2021/10/21 04:45:25;;;;;;;132.32;42.25;;;;;;;;;;5051017;28;20043;-65
2021/10/21 04:47:56;;;;;;;116.82;45.03;;;;;;;;;;5055978;28;20025;-64
2021/10/21 04:50:22;;;;;;;153.98;69.05;;;;;;;;;;5053990;28;20040;-64
2021/10/21 04:52:52;;;;;;;179.00;116.47;;;;;;;;;;5055670;28;20043;-65
2021/10/21 04:55:18;;;;;;;171.23;99.80;;;;;;;;;;5056689;28;20036;-65
2021/10/21 04:57:44;;;;;;;85.22;19.35;;;;;;;;;;5049958;28;20775;-65
2021/10/21 05:00:10;;;;;;;114.38;13.32;;;;;;;;;;5062009;28;20452;-64
2021/10/21 05:02:36;;;;;;;22.75;5.22;;;;;;;;;;5051471;28;20111;-63
2021/10/21 05:05:02;;;;;;;23.63;5.68;;;;;;;;;;5053974;28;20133;-64
2021/10/21 05:07:28;;;;;;;31.65;6.50;;;;;;;;;;5053846;28;20025;-65
2021/10/21 05:09:54;;;;;;;88.68;9.93;;;;;;;;;;5050327;28;20460;-64
2021/10/21 05:12:20;;;;;;;102.47;10.50;;;;;;;;;;5051462;28;20043;-65
2021/10/21 05:14:46;;;;;;;107.78;10.73;;;;;;;;;;5048432;28;20044;-64
2021/10/21 05:17:12;;;;;;;83.63;8.77;;;;;;;;;;5047655;28;20045;-64
2021/10/21 05:19:38;;;;;;;115.70;11.80;;;;;;;;;;5051948;28;20029;-65
2021/10/21 05:22:04;;;;;;;89.07;9.95;;;;;;;;;;5048324;28;20459;-65
2021/10/21 05:24:30;;;;;;;112.88;18.00;;;;;;;;;;5047831;28;20378;-64
2021/10/21 05:26:56;;;;;;;135.52;14.45;;;;;;;;;;5049386;28;20062;-64
2021/10/21 05:29:22;;;;;;;105.22;10.35;;;;;;;;;;5052903;28;20041;-64
2021/10/21 05:31:48;;;;;;;120.43;12.00;;;;;;;;;;5052867;28;20032;-64
2021/10/21 05:34:14;;;;;;;125.95;12.63;;;;;;;;;;5056534;28;20209;-63
2021/10/21 05:36:40;;;;;;;97.85;10.05;;;;;;;;;;5054882;28;20033;-64
2021/10/21 05:39:06;;;;;;;100.47;10.02;;;;;;;;;;5059120;28;20052;-64
2021/10/21 05:41:33;;;;;;;78.30;8.18;;;;;;;;;;5057157;28;20112;-64
2021/10/21 05:43:59;;;;;;;103.13;10.45;;;;;;;;;;5055183;28;20052;-63
2021/10/21 05:46:25;;;;;;;56.80;7.30;;;;;;;;;;5051005;28;20041;-64
2021/10/21 05:48:51;;;;;;;108.53;10.40;;;;;;;;;;5049253;28;20055;-63
2021/10/21 05:51:17;;;;;;;80.20;8.68;;;;;;;;;;5052592;28;20029;-63
2021/10/21 05:53:43;;;;;;;85.07;8.70;;;;;;;;;;5057133;28;20481;-64
2021/10/21 05:56:09;;;;;;;105.57;10.25;;;;;;;;;;5055493;28;20043;-65
2021/10/21 05:58:35;;;;;;;86.03;8.35;;;;;;;;;;5053033;28;20401;-64
2021/10/21 06:01:01;;;;;;;96.78;9.55;;;;;;;;;;5060658;28;20655;-63
2021/10/21 06:03:31;;;;;;;66.35;7.13;;;;;;;;;;5058578;28;20036;-64
2021/10/21 06:05:57;;;;;;;98.97;9.68;;;;;;;;;;5057777;28;20033;-63
2021/10/21 06:08:23;;;;;;;128.07;12.52;;;;;;;;;;5053406;28;20067;-66
2021/10/21 06:10:49;;;;;;;94.30;9.60;;;;;;;;;;5050719;28;20086;-64
2021/10/21 06:13:14;;;;;;;86.80;8.80;;;;;;;;;;5050450;28;20098;-63
2021/10/21 06:15:42;;;;;;;92.78;9.15;;;;;;;;;;5051754;28;20042;-63
2021/10/21 06:18:11;;;;;;;116.88;11.30;;;;;;;;;;5053736;28;20064;-63
2021/10/21 06:20:37;;;;;;;118.53;11.45;;;;;;;;;;5052504;28;20082;-63
2021/10/21 06:23:03;;;;;;;107.65;10.55;;;;;;;;;;5054400;28;20033;-62
2021/10/21 06:25:29;;;;;;;116.82;13.43;;;;;;;;;;5053896;28;20036;-64
2021/10/21 06:27:56;;;;;;;102.22;10.18;;;;;;;;;;5053271;28;20041;-63
2021/10/21 06:30:22;;;;;;;107.35;11.43;;;;;;;;;;5054776;28;20143;-63
2021/10/21 06:32:48;;;;;;;132.65;15.10;;;;;;;;;;5056558;28;20125;-64
2021/10/21 06:35:15;;;;;;;131.68;17.35;;;;;;;;;;5055253;28;20043;-64
2021/10/21 06:37:41;;;;;;;122.10;12.73;;;;;;;;;;5052225;28;20047;-63
2021/10/21 06:40:07;;;;;;;94.65;10.05;;;;;;;;;;5055115;28;20039;-64
2021/10/21 06:42:33;;;;;;;113.53;11.95;;;;;;;;;;5056422;28;20411;-63
2021/10/21 06:44:59;;;;;;;98.32;12.50;;;;;;;;;;5050429;28;20025;-64
2021/10/21 06:47:25;;;;;;;121.18;22.52;;;;;;;;;;5052775;28;20068;-63
2021/10/21 06:49:51;;;;;;;142.40;37.45;;;;;;;;;;5049409;28;20067;-63
2021/10/21 06:52:20;;;;;;;144.35;44.35;;;;;;;;;;5052266;28;20041;-63
2021/10/21 06:54:46;;;;;;;124.55;37.15;;;;;;;;;;5053109;28;20476;-63
2021/10/21 06:57:12;;;;;;;139.45;30.73;;;;;;;;;;5050117;28;20044;-63
2021/10/21 06:59:38;;;;;;;128.40;22.75;;;;;;;;;;5057921;28;20039;-63
2021/10/21 07:02:04;;;;;;;169.30;36.90;;;;;;;;;;5054008;28;20033;-67
2021/10/21 07:04:30;;;;;;;92.15;13.27;;;;;;;;;;5056115;28;20071;-67
2021/10/21 07:06:59;;;;;;;134.02;13.68;;;;;;;;;;5060533;28;20028;-67
2021/10/21 07:09:25;;;;;;;104.43;11.32;;;;;;;;;;5054828;28;20564;-67
2021/10/21 07:11:51;;;;;;;119.63;12.02;;;;;;;;;;5049805;28;20056;-68
2021/10/21 07:14:17;;;;;;;92.57;8.93;;;;;;;;;;5053107;28;20040;-68
2021/10/21 07:16:43;;;;;;;30.40;5.40;;;;;;;;;;5053188;28;20123;-68
2021/10/21 07:19:10;;;;;;;21.15;4.35;;;;;;;;;;5044154;28;20033;-67
2021/10/21 07:21:37;;;;;;;31.73;4.30;;;;;;;;;;5054373;28;20033;-69
2021/10/21 07:24:02;;;;;;;100.38;9.63;;;;;;;;;;5053718;28;20059;-68
2021/10/21 07:26:28;;;;;;;120.13;11.55;;;;;;;;;;5051673;28;20627;-68
2021/10/21 07:28:54;;;;;;;118.95;10.73;;;;;;;;;;5050704;28;20429;-68
2021/10/21 07:31:21;;;;;;;86.47;9.65;;;;;;;;;;5051507;28;20040;-68
2021/10/21 07:33:47;;;;;;;103.72;9.95;;;;;;;;;;5053147;28;20036;-68
2021/10/21 07:36:13;;;;;;;106.47;10.40;;;;;;;;;;5051660;28;20032;-67
2021/10/21 07:38:40;;;;;;;115.35;10.85;;;;;;;;;;5052481;28;20653;-68
2021/10/21 07:41:06;;;;;;;119.75;11.55;;;;;;;;;;5053814;28;20036;-68
2021/10/21 07:43:32;;;;;;;104.50;10.60;;;;;;;;;;5049700;28;20485;-68
2021/10/21 07:45:58;;;;;;;105.70;10.48;;;;;;;;;;5057001;28;20075;-68
2021/10/21 07:48:24;;;;;;;97.95;9.95;;;;;;;;;;5054049;28;20493;-70
2021/10/21 07:50:50;;;;;;;91.40;9.10;;;;;;;;;;5055939;28;20496;-67
2021/10/21 07:53:16;;;;;;;72.65;6.93;;;;;;;;;;5053349;28;20036;-67
2021/10/21 07:55:42;;;;;;;104.55;10.50;;;;;;;;;;5051289;28;20040;-66
2021/10/21 07:58:08;;;;;;;93.43;8.57;;;;;;;;;;5049990;28;20037;-67
2021/10/21 08:00:34;;;;;;;130.13;13.05;;;;;;;;;;5053185;28;20029;-67
2021/10/21 08:03:01;;;;;;;108.88;10.20;;;;;;;;;;5061168;28;20062;-67
2021/10/21 08:05:27;;;;;;;98.22;10.30;;;;;;;;;;5058028;28;20033;-67
2021/10/21 08:07:53;;;;;;;126.78;13.25;;;;;;;;;;5055822;28;20041;-67
2021/10/21 08:10:20;;;;;;;84.03;9.05;;;;;;;;;;5054511;28;20064;-69
2021/10/21 08:12:46;;;;;;;116.40;11.85;;;;;;;;;;5056962;28;20039;-69
2021/10/21 08:15:12;;;;;;;114.43;11.57;;;;;;;;;;5052596;28;20182;-67
2021/10/21 08:17:38;;;;;;;94.30;9.65;;;;;;;;;;5056323;28;20733;-68
2021/10/21 08:20:04;;;;;;;114.20;11.65;;;;;;;;;;5055485;28;20028;-68
2021/10/21 08:22:32;;;;;;;67.00;11.18;;;;;;;;;;5054004;28;20029;-68
2021/10/21 08:24:58;;;;;;;123.18;11.90;;;;;;;;;;5058084;28;20029;-68
2021/10/21 08:27:24;;;;;;;117.70;11.68;;;;;;;;;;5054052;28;20202;-68
2021/10/21 08:29:50;;;;;;;108.28;11.50;;;;;;;;;;5054117;28;20078;-68
2021/10/21 08:32:16;;;;;;;134.45;12.25;;;;;;;;;;5051726;28;20400;-67
2021/10/21 08:34:42;;;;;;;124.78;12.55;;;;;;;;;;5054124;28;20043;-69
2021/10/21 08:37:11;;;;;;;155.02;16.00;;;;;;;;;;5054505;28;20031;-69
2021/10/21 08:39:37;;;;;;;131.48;12.73;;;;;;;;;;5052992;28;20065;-69
2021/10/21 08:42:03;;;;;;;104.80;10.57;;;;;;;;;;5055082;28;20056;-69
2021/10/21 08:44:29;;;;;;;110.90;11.85;;;;;;;;;;5050367;28;20051;-68
2021/10/21 08:46:55;;;;;;;128.63;13.98;;;;;;;;;;5053313;28;20529;-67
2021/10/21 08:49:21;;;;;;;116.22;11.55;;;;;;;;;;5051827;28;20068;-69
2021/10/21 08:51:47;;;;;;;131.95;13.48;;;;;;;;;;5054836;28;20791;-68
2021/10/21 08:54:13;;;;;;;135.93;14.70;;;;;;;;;;5054078;28;20036;-67
2021/10/21 08:56:39;;;;;;;114.75;11.73;;;;;;;;;;5049557;28;20106;-68
2021/10/21 08:59:05;;;;;;;127.00;12.63;;;;;;;;;;5053753;28;20037;-68
2021/10/21 09:01:43;;;;;;;133.07;14.85;;;;;;;;;;5050851;28;20025;-68
2021/10/21 09:09:24;;;;;;;84.32;8.70;;;;;;;;;;5053014;28;20041;-68
2021/10/21 09:11:50;;;;;;;125.90;13.73;;;;;;;;;;5054336;28;20032;-69
2021/10/21 09:14:16;;;;;;;114.47;12.20;;;;;;;;;;5050525;28;20587;-69
2021/10/21 09:16:42;;;;;;;97.25;11.27;;;;;;;;;;5050792;28;20044;-69
2021/10/21 09:19:08;;;;;;;76.22;7.50;;;;;;;;;;5049385;28;20126;-69
2021/10/21 09:21:34;;;;;;;115.97;11.80;;;;;;;;;;5052351;28;20081;-70
2021/10/21 09:24:00;;;;;;;132.05;13.32;;;;;;;;;;5052590;28;20032;-69
2021/10/21 09:26:26;;;;;;;135.88;13.77;;;;;;;;;;5049733;28;20091;-69
2021/10/21 09:28:52;;;;;;;114.13;11.60;;;;;;;;;;5049332;28;20058;-68
2021/10/21 09:31:19;;;;;;;133.25;13.07;;;;;;;;;;5048549;28;20028;-70
2021/10/21 09:33:45;;;;;;;123.03;12.38;;;;;;;;;;5053951;28;20456;-69
2021/10/21 09:36:11;;;;;;;111.53;10.88;;;;;;;;;;5056698;28;20033;-70
2021/10/21 09:38:37;;;;;;;161.93;16.58;;;;;;;;;;5054812;28;20033;-70
2021/10/21 09:41:05;;;;;;;119.60;10.77;;;;;;;;;;5051575;28;20108;-68
2021/10/21 09:43:31;;;;;;;153.23;14.98;;;;;;;;;;5058656;28;20107;-68
2021/10/21 09:45:57;;;;;;;142.43;15.18;;;;;;;;;;5051566;28;20309;-69
2021/10/21 09:48:23;;;;;;;126.32;13.60;;;;;;;;;;5059183;28;20032;-69
2021/10/21 09:50:49;;;;;;;120.47;14.05;;;;;;;;;;5056696;28;20188;-69
2021/10/21 09:53:18;;;;;;;107.85;11.68;;;;;;;;;;5054912;28;20135;-69
2021/10/21 09:55:45;;;;;;;105.70;11.00;;;;;;;;;;5054569;28;20048;-69
2021/10/21 09:58:11;;;;;;;110.30;12.35;;;;;;;;;;5049401;28;20044;-69
2021/10/21 10:00:37;;;;;;;152.55;16.67;;;;;;;;;;5051395;28;20037;-69
2021/10/21 10:03:03;;;;;;;142.43;16.45;;;;;;;;;;5053809;28;20038;-68
2021/10/21 10:05:30;;;;;;;116.13;12.07;;;;;;;;;;5052633;28;20067;-70
2021/10/21 10:07:56;;;;;;;121.68;13.68;;;;;;;;;;5051114;28;20492;-68
2021/10/21 10:10:21;;;;;;;112.43;11.18;;;;;;;;;;5050925;28;20044;-69
2021/10/21 10:12:47;;;;;;;118.38;12.85;;;;;;;;;;5052277;28;20090;-68
2021/10/21 10:15:13;;;;;;;139.48;14.50;;;;;;;;;;5052498;28;20128;-70
2021/10/21 10:17:39;;;;;;;136.80;14.23;;;;;;;;;;5050108;28;20033;-69
2021/10/21 10:20:05;;;;;;;138.18;15.27;;;;;;;;;;5051861;28;20098;-70
2021/10/21 10:22:31;;;;;;;145.07;15.77;;;;;;;;;;5052170;28;20025;-69
2021/10/21 10:24:57;;;;;;;150.00;16.58;;;;;;;;;;5052695;28;20024;-70
2021/10/21 10:27:23;;;;;;;133.55;15.18;;;;;;;;;;5049174;28;20039;-69
2021/10/21 10:29:49;;;;;;;148.98;23.63;;;;;;;;;;5053516;28;20174;-70
2021/10/21 10:32:15;;;;;;;129.18;14.73;;;;;;;;;;5048034;28;20041;-70
2021/10/21 10:34:41;;;;;;;56.15;6.40;;;;;;;;;;5051095;28;20029;-69
2021/10/21 10:37:07;;;;;;;68.15;7.72;;;;;;;;;;5049550;28;20060;-69
2021/10/21 10:39:33;;;;;;;76.40;7.68;;;;;;;;;;5049513;28;20044;-68
2021/10/21 10:41:59;;;;;;;83.90;7.82;;;;;;;;;;5050782;28;20035;-70
2021/10/21 10:44:25;;;;;;;134.50;36.83;;;;;;;;;;5048967;28;20033;-69
2021/10/21 10:46:52;;;;;;;217.52;74.18;;;;;;;;;;5053118;28;20086;-69
2021/10/21 10:49:18;;;;;;;226.95;128.63;;;;;;;;;;5051996;28;20041;-69
2021/10/21 10:51:45;;;;;;;161.00;52.42;;;;;;;;;;5046949;28;20037;-69
2021/10/21 10:54:11;;;;;;;157.57;45.55;;;;;;;;;;5047178;28;20094;-69
2021/10/21 10:56:37;;;;;;;168.60;40.47;;;;;;;;;;5055575;28;20040;-69
2021/10/21 10:59:03;;;;;;;160.38;33.30;;;;;;;;;;5056836;28;20036;-69
2021/10/21 11:01:30;;;;;;;177.73;56.67;;;;;;;;;;5050269;28;20025;-69
2021/10/21 11:03:56;;;;;;;137.60;49.13;;;;;;;;;;5050351;28;20043;-69
2021/10/21 11:06:21;;;;;;;202.57;128.43;;;;;;;;;;5049655;28;20036;-68
2021/10/21 11:08:48;;;;;;;202.98;106.72;;;;;;;;;;5048197;28;20037;-69
2021/10/21 11:11:14;;;;;;;241.88;155.15;;;;;;;;;;5050848;28;20040;-69
2021/10/21 11:13:40;;;;;;;242.70;165.27;;;;;;;;;;5051233;28;20083;-69
2021/10/21 11:16:07;;;;;;;266.73;176.23;;;;;;;;;;5044885;28;20567;-69
2021/10/21 11:18:34;;;;;;;297.17;220.77;;;;;;;;;;5045587;28;20040;-62
2021/10/21 11:21:02;;;;;;;357.13;211.02;;;;;;;;;;5050909;28;20044;-62
2021/10/21 11:23:28;;;;;;;459.02;325.83;;;;;;;;;;5051497;28;20489;-62
2021/10/21 11:26:05;;;;;;;341.40;253.35;;;;;;;;;;5049026;28;20531;-62
2021/10/21 11:28:31;;;;;;;54.58;7.13;;;;;;;;;;5038235;28;20041;-63
2021/10/21 11:30:57;;;;;;;118.60;19.15;;;;;;;;;;5053355;28;20029;-62
2021/10/21 11:33:25;;;;;;;100.18;10.70;;;;;;;;;;5051556;28;20566;-63
2021/10/21 11:35:52;;;;;;;156.00;16.95;;;;;;;;;;5052367;28;20035;-62
2021/10/21 11:38:18;;;;;;;100.10;9.82;;;;;;;;;;5051723;28;20033;-63
2021/10/21 11:40:44;;;;;;;115.68;12.90;;;;;;;;;;5056925;28;20896;-63
2021/10/21 11:43:10;;;;;;;75.78;8.18;;;;;;;;;;5055003;28;20063;-63
2021/10/21 11:45:36;;;;;;;112.32;10.73;;;;;;;;;;5054220;28;20033;-63
2021/10/21 11:48:02;;;;;;;132.52;13.05;;;;;;;;;;5053472;28;20039;-63
2021/10/21 11:50:28;;;;;;;64.43;7.00;;;;;;;;;;5053012;28;20274;-63
2021/10/21 11:52:54;;;;;;;88.45;8.85;;;;;;;;;;5052611;28;20837;-62
2021/10/21 11:55:20;;;;;;;105.93;12.38;;;;;;;;;;5050141;28;20033;-63
2021/10/21 11:57:46;;;;;;;87.80;8.73;;;;;;;;;;5060081;28;20045;-63
2021/10/21 12:00:12;;;;;;;108.28;11.20;;;;;;;;;;5049870;28;20721;-63
2021/10/21 12:02:38;;;;;;;106.82;11.05;;;;;;;;;;5054889;28;20028;-63
2021/10/21 12:05:04;;;;;;;125.85;13.13;;;;;;;;;;5050392;28;20033;-63
2021/10/21 12:07:30;;;;;;;133.15;13.60;;;;;;;;;;5053875;28;20060;-62
2021/10/21 12:09:56;;;;;;;123.70;12.70;;;;;;;;;;5053907;28;20033;-63
2021/10/21 12:12:22;;;;;;;118.68;13.48;;;;;;;;;;5052228;28;20081;-63
2021/10/21 12:14:48;;;;;;;124.32;13.07;;;;;;;;;;5055185;28;20044;-63
2021/10/21 12:17:14;;;;;;;161.20;15.80;;;;;;;;;;5052404;28;20043;-63
2021/10/21 12:19:40;;;;;;;99.95;10.15;;;;;;;;;;5055732;28;20769;-63
2021/10/21 12:22:13;;;;;;;119.50;11.77;;;;;;;;;;5054383;28;20036;-63
2021/10/21 12:24:42;;;;;;;126.88;12.73;;;;;;;;;;5047172;28;20032;-63
2021/10/21 12:27:08;;;;;;;152.20;17.13;;;;;;;;;;5051709;28;20051;-63
2021/10/21 12:29:43;;;;;;;107.03;10.38;;;;;;;;;;5050252;28;20029;-62
2021/10/21 12:32:09;;;;;;;134.70;12.60;;;;;;;;;;5046247;28;20489;-63
2021/10/21 12:34:35;;;;;;;128.65;13.77;;;;;;;;;;5054659;28;20036;-63
2021/10/21 12:37:07;;;;;;;143.02;15.18;;;;;;;;;;5052145;28;20048;-63
2021/10/21 12:39:33;;;;;;;98.32;9.65;;;;;;;;;;5053489;28;20111;-64
2021/10/21 12:41:59;;;;;;;143.18;14.15;;;;;;;;;;5050546;28;20746;-63
2021/10/21 12:44:25;;;;;;;68.80;8.07;;;;;;;;;;5054183;28;20064;-63
2021/10/21 12:46:51;;;;;;;101.35;10.65;;;;;;;;;;5050231;28;20167;-63
2021/10/21 12:49:17;;;;;;;128.15;13.82;;;;;;;;;;5051862;28;20039;-62
2021/10/21 12:51:43;;;;;;;131.45;13.65;;;;;;;;;;5052630;28;20135;-62
2021/10/21 12:54:09;;;;;;;52.75;6.28;;;;;;;;;;5052695;28;20075;-62
2021/10/21 12:56:37;;;;;;;129.20;13.38;;;;;;;;;;5051785;28;20688;-62
2021/10/21 12:59:03;;;;;;;111.30;13.40;;;;;;;;;;5045230;28;20041;-62
2021/10/21 13:01:29;;;;;;;129.00;14.35;;;;;;;;;;5057351;28;20107;-62
2021/10/21 13:03:55;;;;;;;134.85;14.23;;;;;;;;;;5056447;28;20028;-62
2021/10/21 13:06:21;;;;;;;119.32;13.32;;;;;;;;;;5052817;28;20525;-62
2021/10/21 13:08:51;;;;;;;98.93;10.15;;;;;;;;;;5057264;28;20025;-63
2021/10/21 13:11:20;;;;;;;110.15;11.45;;;;;;;;;;5052866;28;20086;-61
2021/10/21 13:13:51;;;;;;;97.70;10.93;;;;;;;;;;5051561;28;20136;-61
2021/10/21 13:16:17;;;;;;;127.20;13.10;;;;;;;;;;5052043;28;20044;-62
2021/10/21 13:18:43;;;;;;;138.05;13.77;;;;;;;;;;5047513;28;20032;-63
2021/10/21 13:21:09;;;;;;;121.72;12.85;;;;;;;;;;5043875;28;20103;-62
2021/10/21 13:23:35;;;;;;;64.30;8.25;;;;;;;;;;5048525;28;20035;-63
2021/10/21 13:26:01;;;;;;;76.40;8.88;;;;;;;;;;5051685;28;20032;-63
2021/10/21 13:28:27;;;;;;;109.07;13.27;;;;;;;;;;5048476;28;20118;-63
2021/10/21 13:30:53;;;;;;;103.10;10.93;;;;;;;;;;5052818;28;20472;-62
2021/10/21 13:33:19;;;;;;;102.10;10.20;;;;;;;;;;5047441;28;20045;-64
2021/10/21 13:35:45;;;;;;;69.75;8.75;;;;;;;;;;5058028;28;20075;-62
2021/10/21 13:38:11;;;;;;;39.05;6.03;;;;;;;;;;5051305;28;20064;-64
2021/10/21 13:40:37;;;;;;;54.67;7.47;;;;;;;;;;5059843;28;20139;-63
2021/10/21 13:43:03;;;;;;;58.58;8.88;;;;;;;;;;5050733;28;20032;-63
2021/10/21 13:45:29;;;;;;;53.00;7.50;;;;;;;;;;5049821;28;20055;-63
2021/10/21 13:47:55;;;;;;;63.90;10.77;;;;;;;;;;5048858;28;20029;-64
2021/10/21 13:50:21;;;;;;;77.53;9.85;;;;;;;;;;5049466;28;20041;-63
2021/10/21 13:52:47;;;;;;;77.25;9.13;;;;;;;;;;5053111;28;20485;-62
2021/10/21 13:55:13;;;;;;;69.05;8.30;;;;;;;;;;5048566;28;20139;-63
2021/10/21 13:57:39;;;;;;;105.63;10.30;;;;;;;;;;5049829;28;20036;-63
2021/10/21 14:00:06;;;;;;;98.65;9.93;;;;;;;;;;5053096;28;20036;-62
2021/10/21 14:02:32;;;;;;;125.85;12.73;;;;;;;;;;5052660;28;20128;-62
2021/10/21 14:04:58;;;;;;;145.48;14.60;;;;;;;;;;5051483;28;20371;-62
2021/10/21 14:07:24;;;;;;;123.88;12.82;;;;;;;;;;5057994;28;20037;-62
2021/10/21 14:09:51;;;;;;;136.30;13.15;;;;;;;;;;5055209;28;20040;-63